Time;durP1;ratioP1;P1;durP2;ratioP2;P2;SDS_P1;SDS_P2;PMS_P1;PMS_P2;Temp;Humidity;BMP_temperature;BMP_pressure;BME280_temperature;BME280_humidity;BME280_pressure;Samples;Min_cycle;Max_cycle;Signal;HPM_P1;HPM_P2
2022/12/08 00:00:01;;;;;;;8.68;2.58;;;1.90;99.90;;;;;;5095204;27;20136;-81
2022/12/08 00:02:26;;;;;;;4.60;1.40;;;1.90;99.90;;;;;;5095808;27;20050;-82
2022/12/08 00:10:22;;;;;;;6.60;1.63;;;1.90;99.90;;;;;;5110644;27;20529;-81
2022/12/08 00:12:47;;;;;;;8.30;1.02;;;1.90;99.90;;;;;;5096471;28;20048;-82
2022/12/08 00:15:13;;;;;;;8.43;1.55;;;1.90;99.90;;;;;;5056634;27;20047;-82
2022/12/08 00:17:39;;;;;;;6.93;1.23;;;1.90;99.90;;;;;;5094855;27;20070;-82
2022/12/08 00:20:05;;;;;;;9.20;1.85;;;1.90;99.90;;;;;;5078334;27;20098;-82
2022/12/08 00:22:31;;;;;;;6.70;1.10;;;1.90;99.90;;;;;;5088501;28;20396;-82
2022/12/08 00:24:57;;;;;;;10.60;2.03;;;1.90;99.90;;;;;;5073987;27;20106;-82
2022/12/08 00:27:22;;;;;;;8.55;1.35;;;1.90;99.90;;;;;;5096206;27;20707;-82
2022/12/08 00:29:48;;;;;;;7.88;1.60;;;1.90;99.90;;;;;;5084593;27;20123;-81
2022/12/08 00:32:14;;;;;;;8.50;1.55;;;1.90;99.90;;;;;;5096138;27;20140;-81
2022/12/08 00:34:39;;;;;;;5.78;1.60;;;1.90;99.90;;;;;;5091955;27;20051;-83
2022/12/08 00:37:05;;;;;;;9.02;1.67;;;1.80;99.90;;;;;;5074769;28;20039;-82
2022/12/08 00:39:31;;;;;;;7.00;2.10;;;1.80;99.90;;;;;;5076171;27;20047;-82
2022/12/08 00:42:11;;;;;;;13.43;1.83;;;1.90;99.90;;;;;;5111222;27;20047;-81
2022/12/08 00:44:41;;;;;;;9.75;1.70;;;1.90;99.90;;;;;;5079622;27;20058;-82
2022/12/08 00:47:07;;;;;;;7.20;1.48;;;2.00;99.90;;;;;;5095395;27;20054;-82
2022/12/08 00:49:32;;;;;;;8.55;2.20;;;2.10;99.90;;;;;;5095212;27;20054;-82
2022/12/08 00:51:58;;;;;;;4.05;1.90;;;2.20;99.90;;;;;;5090858;27;20134;-83
2022/12/08 00:54:24;;;;;;;8.68;2.30;;;2.30;99.90;;;;;;5095226;27;20043;-82
2022/12/08 00:56:50;;;;;;;5.38;1.83;;;2.30;99.90;;;;;;5111564;27;20039;-82
2022/12/08 00:59:16;;;;;;;5.93;1.95;;;2.30;99.90;;;;;;5077482;27;20054;-82
2022/12/08 01:01:44;;;;;;;9.40;2.20;;;2.40;99.90;;;;;;5074789;27;20047;-84
2022/12/08 01:04:14;;;;;;;7.70;2.35;;;2.40;99.90;;;;;;5087144;27;20062;-82
2022/12/08 01:06:40;;;;;;;13.65;2.80;;;2.40;99.90;;;;;;5092011;27;20042;-82
2022/12/08 01:09:07;;;;;;;11.40;2.70;;;2.40;99.90;;;;;;5110540;27;20038;-81
2022/12/08 01:11:33;;;;;;;6.15;2.00;;;2.40;99.90;;;;;;5091036;27;20062;-81
2022/12/08 01:13:59;;;;;;;13.32;3.00;;;2.40;99.90;;;;;;5094123;27;20091;-81
2022/12/08 01:16:32;;;;;;;6.38;2.40;;;2.30;99.90;;;;;;5100516;28;20039;-81
2022/12/08 01:18:59;;;;;;;7.57;2.05;;;2.30;99.90;;;;;;5093757;27;20722;-81
2022/12/08 01:21:25;;;;;;;7.20;1.73;;;2.20;99.90;;;;;;5095747;27;20096;-82
2022/12/08 01:23:51;;;;;;;5.15;2.33;;;2.20;99.90;;;;;;5094701;27;20609;-82
2022/12/08 01:26:18;;;;;;;3.83;1.73;;;2.20;99.90;;;;;;5074304;28;20134;-83
2022/12/08 01:28:45;;;;;;;7.93;1.55;;;2.20;99.90;;;;;;5123200;27;20051;-82
2022/12/08 01:31:16;;;;;;;14.65;2.10;;;2.20;99.90;;;;;;5109100;27;20103;-83
2022/12/08 01:33:43;;;;;;;7.32;2.08;;;2.20;99.90;;;;;;5085362;27;20496;-82
2022/12/08 01:36:21;;;;;;;7.32;1.98;;;2.20;99.90;;;;;;5091726;28;20126;-82
2022/12/08 01:38:48;;;;;;;8.02;2.42;;;2.20;99.90;;;;;;5094209;28;20059;-84
2022/12/08 01:41:16;;;;;;;6.63;1.73;;;2.20;99.90;;;;;;5077770;28;20043;-82
2022/12/08 01:44:00;;;;;;;4.95;1.80;;;2.20;99.90;;;;;;5110444;28;20400;-82
2022/12/08 01:46:28;;;;;;;5.10;1.85;;;2.20;99.90;;;;;;5088233;28;20039;-82
2022/12/08 01:49:16;;;;;;;8.13;1.95;;;2.20;99.90;;;;;;5073175;28;20071;-83
2022/12/08 01:52:02;;;;;;;5.75;1.52;;;2.20;99.90;;;;;;5091578;27;20083;-82
2022/12/08 01:54:32;;;;;;;9.68;1.92;;;2.30;99.90;;;;;;5109941;28;20816;-83
2022/12/08 01:57:15;;;;;;;6.57;1.52;;;2.30;99.90;;;;;;5110173;28;20043;-82
2022/12/08 01:59:45;;;;;;;6.03;1.63;;;2.30;99.90;;;;;;5106330;28;20176;-82
2022/12/08 02:02:11;;;;;;;5.95;1.80;;;2.30;99.90;;;;;;5111122;27;20035;-83
2022/12/08 02:04:37;;;;;;;5.13;1.42;;;2.30;99.90;;;;;;5115077;27;20047;-82
2022/12/08 02:07:06;;;;;;;7.68;1.65;;;2.30;99.90;;;;;;5113689;27;20135;-83
2022/12/08 02:09:32;;;;;;;5.00;1.50;;;2.30;99.90;;;;;;5110949;27;20055;-82
2022/12/08 02:11:58;;;;;;;12.75;2.22;;;2.30;99.90;;;;;;5096957;27;20818;-83
2022/12/08 02:14:24;;;;;;;9.75;2.15;;;2.30;99.90;;;;;;5091497;28;20078;-82
2022/12/08 02:17:04;;;;;;;6.30;2.35;;;2.30;99.90;;;;;;5087553;27;20066;-82
2022/12/08 02:20:17;;;;;;;7.05;2.10;;;2.30;99.90;;;;;;5118839;27;20452;-83
2022/12/08 02:22:59;;;;;;;6.15;1.30;;;2.30;99.90;;;;;;5017969;28;20049;-82
2022/12/08 02:25:24;;;;;;;5.45;1.60;;;2.30;99.90;;;;;;5053462;28;20227;-83
2022/12/08 02:28:14;;;;;;;4.07;1.73;;;2.30;99.90;;;;;;5068108;28;20587;-82
2022/12/08 02:31:04;;;;;;;8.48;1.80;;;2.30;99.90;;;;;;5093153;28;20039;-82
2022/12/08 02:33:51;;;;;;;6.90;1.83;;;2.30;99.90;;;;;;5092389;28;20043;-82
2022/12/08 02:36:38;;;;;;;7.05;1.50;;;2.20;99.90;;;;;;5097136;27;20057;-82
2022/12/08 02:39:46;;;;;;;5.32;1.25;;;2.20;99.90;;;;;;5106798;27;20494;-82
2022/12/08 02:42:24;;;;;;;7.80;1.27;;;2.30;99.90;;;;;;5079184;27;20051;-80
2022/12/08 02:45:18;;;;;;;3.17;1.00;;;2.20;99.90;;;;;;5114541;27;20148;-82
2022/12/08 02:47:44;;;;;;;6.18;1.17;;;2.20;99.90;;;;;;5114688;27;20077;-84
2022/12/08 02:50:10;;;;;;;7.63;1.30;;;2.20;99.90;;;;;;5132000;27;20378;-82
2022/12/08 02:52:42;;;;;;;3.28;1.17;;;2.10;99.90;;;;;;5125488;27;20046;-83
2022/12/08 02:55:19;;;;;;;5.95;1.00;;;2.10;99.90;;;;;;5113128;27;20046;-82
2022/12/08 02:58:35;;;;;;;3.63;1.52;;;2.20;99.90;;;;;;5097686;27;20054;-83
2022/12/08 03:01:28;;;;;;;4.25;1.10;;;2.20;99.90;;;;;;5079930;27;20057;-82
2022/12/08 03:04:21;;;;;;;5.07;1.25;;;2.20;99.90;;;;;;5113375;27;20053;-82
2022/12/08 03:07:01;;;;;;;7.07;1.17;;;2.20;99.90;;;;;;5114387;27;20108;-82
2022/12/08 03:09:33;;;;;;;7.78;1.30;;;2.10;99.90;;;;;;5111371;28;20408;-82
2022/12/08 03:12:13;;;;;;;3.92;1.50;;;2.20;99.90;;;;;;5094377;27;20047;-85
2022/12/08 03:14:44;;;;;;;8.93;2.08;;;2.20;99.90;;;;;;5096672;27;20051;-82
2022/12/08 03:17:11;;;;;;;6.32;2.00;;;2.20;99.90;;;;;;5096186;27;20529;-82
2022/12/08 03:19:40;;;;;;;6.30;1.85;;;2.30;99.90;;;;;;5085604;28;20101;-82
2022/12/08 03:22:07;;;;;;;4.05;1.60;;;2.30;99.90;;;;;;5113653;27;20031;-83
2022/12/08 03:24:39;;;;;;;4.43;1.40;;;2.30;99.90;;;;;;5110753;27;21088;-82
2022/12/08 03:27:13;;;;;;;6.30;1.60;;;2.30;99.90;;;;;;5097144;27;20047;-81
2022/12/08 03:29:39;;;;;;;5.20;1.40;;;2.40;99.90;;;;;;5093679;28;20051;-82
2022/12/08 03:32:22;;;;;;;4.90;2.50;;;2.40;99.90;;;;;;5087313;27;20126;-84
2022/12/08 03:34:49;;;;;;;3.50;0.93;;;2.40;99.90;;;;;;5095921;27;20631;-81
2022/12/08 03:37:15;;;;;;;3.92;1.10;;;2.40;99.90;;;;;;5084331;28;20075;-81
2022/12/08 03:39:41;;;;;;;2.92;1.15;;;2.30;99.90;;;;;;5096564;27;20043;-81
2022/12/08 03:42:07;;;;;;;3.10;0.90;;;2.30;99.90;;;;;;5095728;27;20054;-82
2022/12/08 03:44:33;;;;;;;5.47;1.20;;;2.30;99.90;;;;;;5094739;27;20078;-83
2022/12/08 03:46:58;;;;;;;2.53;1.10;;;2.30;99.90;;;;;;5080746;27;20054;-82
2022/12/08 03:49:24;;;;;;;3.47;1.23;;;2.20;99.90;;;;;;5095412;27;20039;-82
2022/12/08 03:51:50;;;;;;;3.50;0.90;;;2.20;99.90;;;;;;5113634;27;20051;-82
2022/12/08 03:54:15;;;;;;;2.05;0.90;;;2.20;99.90;;;;;;5058795;28;20489;-81
2022/12/08 03:56:41;;;;;;;1.83;0.50;;;2.10;99.90;;;;;;5107306;27;20465;-82
2022/12/08 03:59:07;;;;;;;0.60;0.50;;;2.10;99.90;;;;;;5101459;27;20126;-84
2022/12/08 04:01:33;;;;;;;1.70;0.50;;;2.00;99.90;;;;;;5113088;27;20047;-82
2022/12/08 04:03:59;;;;;;;0.80;0.60;;;2.00;99.90;;;;;;5112942;27;20492;-81
2022/12/08 04:06:25;;;;;;;1.85;0.40;;;1.90;99.90;;;;;;5095815;27;20042;-85
2022/12/08 04:08:51;;;;;;;5.45;0.50;;;1.80;99.90;;;;;;5075890;28;20488;-81
2022/12/08 04:11:17;;;;;;;1.23;0.30;;;1.80;99.90;;;;;;5105823;27;20051;-83
2022/12/08 04:13:44;;;;;;;4.53;0.98;;;1.80;99.90;;;;;;5146605;27;20035;-82
2022/12/08 04:16:18;;;;;;;1.27;0.60;;;1.70;99.90;;;;;;5074177;28;20504;-84
2022/12/08 04:18:44;;;;;;;3.42;0.50;;;1.70;99.90;;;;;;5091367;28;20101;-82
2022/12/08 04:21:10;;;;;;;3.22;0.50;;;1.60;99.90;;;;;;5107321;27;20132;-85
2022/12/08 04:23:36;;;;;;;1.92;0.50;;;1.60;99.90;;;;;;5093916;27;20127;-82
2022/12/08 04:26:02;;;;;;;3.97;0.82;;;1.60;99.90;;;;;;5078784;27;20046;-82
2022/12/08 04:28:30;;;;;;;2.95;0.80;;;1.60;99.90;;;;;;5140376;27;20080;-81
2022/12/08 04:30:56;;;;;;;5.05;0.88;;;1.60;99.90;;;;;;5088809;27;20070;-82
2022/12/08 04:33:22;;;;;;;2.17;0.80;;;1.60;99.90;;;;;;5089706;27;20070;-81
2022/12/08 04:35:48;;;;;;;1.27;0.70;;;1.60;99.90;;;;;;5112313;27;20051;-84
2022/12/08 04:38:14;;;;;;;4.65;0.82;;;1.60;99.90;;;;;;5111924;27;20042;-85
2022/12/08 04:40:40;;;;;;;7.32;0.93;;;1.70;99.90;;;;;;5092522;27;20122;-82
2022/12/08 04:43:06;;;;;;;5.28;0.70;;;1.80;99.90;;;;;;5078585;27;20055;-81
2022/12/08 04:45:32;;;;;;;2.58;0.77;;;1.80;99.90;;;;;;5093749;27;20055;-83
2022/12/08 04:47:59;;;;;;;2.28;0.73;;;1.80;99.90;;;;;;5084816;28;20057;-82
2022/12/08 04:50:25;;;;;;;3.33;0.90;;;1.80;99.90;;;;;;5110259;27;20077;-82
2022/12/08 04:52:50;;;;;;;3.53;0.90;;;1.90;99.90;;;;;;5076814;27;20500;-82
2022/12/08 04:55:16;;;;;;;4.07;0.65;;;1.90;99.90;;;;;;5084466;27;20081;-85
2022/12/08 04:57:42;;;;;;;3.30;0.90;;;1.90;99.90;;;;;;5091817;27;20035;-82
2022/12/08 05:00:09;;;;;;;3.17;0.60;;;1.80;99.90;;;;;;5084632;27;20031;-83
2022/12/08 05:02:35;;;;;;;6.72;1.23;;;1.80;99.90;;;;;;5106326;27;20149;-82
2022/12/08 05:05:01;;;;;;;2.08;0.70;;;1.80;99.90;;;;;;5089642;27;20123;-83
2022/12/08 05:07:26;;;;;;;2.90;0.50;;;1.90;99.90;;;;;;5070317;27;20058;-82
2022/12/08 05:09:52;;;;;;;1.83;0.75;;;1.90;99.90;;;;;;5106087;27;20557;-83
2022/12/08 05:12:18;;;;;;;6.38;0.90;;;1.90;99.90;;;;;;5081980;27;20039;-84
2022/12/08 05:14:45;;;;;;;2.33;0.57;;;1.90;99.90;;;;;;5056394;27;20465;-84
2022/12/08 05:17:10;;;;;;;3.83;0.75;;;1.90;99.90;;;;;;5101381;27;20126;-83
2022/12/08 05:19:36;;;;;;;1.98;0.45;;;2.00;99.90;;;;;;5067927;27;20126;-83
2022/12/08 05:22:02;;;;;;;3.08;0.50;;;2.00;99.90;;;;;;5090273;27;20031;-82
2022/12/08 05:24:28;;;;;;;5.55;0.80;;;2.00;99.90;;;;;;5104536;27;20039;-83
2022/12/08 05:26:54;;;;;;;1.80;0.90;;;2.00;99.90;;;;;;5091284;27;20047;-82
2022/12/08 05:29:19;;;;;;;2.30;0.80;;;2.00;99.90;;;;;;5085751;27;20039;-85
2022/12/08 05:31:45;;;;;;;6.55;0.80;;;2.10;99.90;;;;;;5077257;27;20069;-82
2022/12/08 05:34:11;;;;;;;3.97;0.90;;;2.00;99.90;;;;;;5111091;27;20039;-81
2022/12/08 05:36:36;;;;;;;2.55;0.50;;;2.00;99.90;;;;;;5089845;28;20054;-83
2022/12/08 05:39:02;;;;;;;2.20;0.65;;;2.00;99.90;;;;;;5070475;28;20036;-81
2022/12/08 05:41:28;;;;;;;3.03;0.60;;;2.00;99.90;;;;;;5086325;27;20043;-82
2022/12/08 05:43:54;;;;;;;2.40;0.60;;;1.90;99.90;;;;;;5090207;28;20054;-82
2022/12/08 05:46:19;;;;;;;3.35;0.45;;;1.90;99.90;;;;;;5073992;27;20077;-83
2022/12/08 05:48:45;;;;;;;1.95;0.43;;;2.00;99.90;;;;;;5069694;28;20047;-83
2022/12/08 05:51:20;;;;;;;2.13;0.70;;;2.00;99.90;;;;;;5089900;28;20047;-82
2022/12/08 05:53:46;;;;;;;1.80;0.38;;;2.00;99.90;;;;;;5083680;28;20086;-83
2022/12/08 05:56:12;;;;;;;3.25;0.43;;;2.00;99.90;;;;;;5076335;28;20426;-82
2022/12/08 05:58:38;;;;;;;2.35;0.60;;;2.00;99.90;;;;;;5069802;28;20058;-82
2022/12/08 06:01:04;;;;;;;7.63;2.05;;;2.00;99.90;;;;;;5077896;28;20092;-83
2022/12/08 06:03:30;;;;;;;8.18;2.70;;;2.10;99.90;;;;;;5087317;28;20039;-83
2022/12/08 06:05:55;;;;;;;11.27;3.70;;;2.00;99.90;;;;;;5085922;28;20051;-81
2022/12/08 06:08:21;;;;;;;16.52;6.10;;;2.00;99.90;;;;;;5089119;28;20066;-82
2022/12/08 06:10:47;;;;;;;12.52;4.18;;;2.00;99.90;;;;;;5105229;28;20105;-83
2022/12/08 06:13:13;;;;;;;8.07;3.60;;;1.90;99.90;;;;;;5087197;28;20104;-82
2022/12/08 06:15:39;;;;;;;9.65;3.25;;;2.00;99.90;;;;;;5088797;28;20054;-82
2022/12/08 06:18:05;;;;;;;6.63;1.42;;;2.00;99.90;;;;;;5085580;28;20534;-81
2022/12/08 06:20:31;;;;;;;4.15;0.93;;;2.00;99.90;;;;;;5074794;28;20047;-82
2022/12/08 06:22:57;;;;;;;3.83;1.33;;;2.00;99.90;;;;;;5070586;28;20050;-82
2022/12/08 06:25:23;;;;;;;4.68;1.63;;;2.00;99.90;;;;;;5093405;28;20750;-83
2022/12/08 06:27:49;;;;;;;3.92;1.48;;;2.00;99.90;;;;;;5080135;27;20657;-82
2022/12/08 06:30:15;;;;;;;4.80;1.90;;;2.00;99.90;;;;;;5097368;28;20039;-82
2022/12/08 06:32:41;;;;;;;3.28;1.35;;;2.00;99.90;;;;;;5093431;28;20118;-83
2022/12/08 06:35:07;;;;;;;5.18;2.17;;;2.00;99.90;;;;;;5103891;28;20130;-83
2022/12/08 06:37:33;;;;;;;7.45;2.47;;;1.90;99.90;;;;;;5092652;28;20118;-83
2022/12/08 06:39:59;;;;;;;8.45;2.92;;;1.90;99.90;;;;;;5115673;28;20122;-83
2022/12/08 06:42:42;;;;;;;5.43;2.47;;;1.90;99.90;;;;;;5111593;28;20051;-83
2022/12/08 06:45:09;;;;;;;6.78;2.28;;;1.90;99.90;;;;;;5070675;28;20098;-84
2022/12/08 06:47:35;;;;;;;7.75;2.53;;;1.90;99.90;;;;;;5094849;27;20057;-86
2022/12/08 06:50:00;;;;;;;7.82;2.38;;;1.90;99.90;;;;;;5074499;27;20472;-83
2022/12/08 06:52:26;;;;;;;7.63;2.50;;;1.90;99.90;;;;;;5096342;27;20080;-83
2022/12/08 06:54:52;;;;;;;8.88;2.85;;;1.80;99.90;;;;;;5090778;28;20036;-83
2022/12/08 06:57:17;;;;;;;9.82;2.90;;;1.80;99.90;;;;;;5110981;27;20122;-82
2022/12/08 06:59:43;;;;;;;7.65;2.83;;;1.80;99.90;;;;;;5086293;28;20463;-84
2022/12/08 07:02:10;;;;;;;5.85;2.40;;;1.80;99.90;;;;;;5076528;28;20039;-81
2022/12/08 07:04:36;;;;;;;9.40;3.08;;;1.90;99.90;;;;;;5101433;27;20401;-84
2022/12/08 07:07:01;;;;;;;4.97;2.30;;;1.90;99.90;;;;;;5109422;28;20039;-82
2022/12/08 07:09:28;;;;;;;6.30;2.40;;;1.90;99.90;;;;;;5079567;28;20064;-82
2022/12/08 07:11:53;;;;;;;8.80;3.25;;;1.90;99.90;;;;;;5112826;27;20062;-84
2022/12/08 07:14:23;;;;;;;9.27;2.60;;;1.90;99.90;;;;;;5097814;27;20059;-83
2022/12/08 07:16:49;;;;;;;10.43;3.03;;;1.90;99.90;;;;;;5096594;27;20404;-83
2022/12/08 07:19:15;;;;;;;7.65;2.80;;;1.90;99.90;;;;;;5115098;27;20039;-83
2022/12/08 07:21:41;;;;;;;6.90;2.60;;;1.90;99.90;;;;;;5087987;27;20047;-83
2022/12/08 07:24:07;;;;;;;8.32;2.83;;;2.00;99.90;;;;;;5115051;27;20043;-83
2022/12/08 07:26:33;;;;;;;8.38;3.47;;;1.90;99.90;;;;;;5114628;27;20080;-84
2022/12/08 07:28:59;;;;;;;10.02;3.55;;;2.00;99.90;;;;;;5114098;27;20055;-83
2022/12/08 07:31:27;;;;;;;6.65;3.40;;;2.00;99.90;;;;;;5069035;27;20054;-82
2022/12/08 07:33:54;;;;;;;13.23;3.63;;;2.00;99.90;;;;;;5113971;27;20586;-83
2022/12/08 07:36:20;;;;;;;9.77;4.07;;;2.00;99.90;;;;;;5091707;28;20055;-83
2022/12/08 07:38:47;;;;;;;8.60;3.50;;;1.90;99.90;;;;;;5107034;27;20389;-83
2022/12/08 07:41:18;;;;;;;6.97;3.75;;;1.90;99.90;;;;;;5079772;27;20055;-83
2022/12/08 07:43:44;;;;;;;8.88;3.47;;;2.00;99.90;;;;;;5095193;27;20141;-86
2022/12/08 07:46:14;;;;;;;12.95;4.40;;;1.90;99.90;;;;;;5063335;28;20138;-82
2022/12/08 07:48:41;;;;;;;8.48;3.58;;;1.90;99.90;;;;;;5077988;27;20047;-86
2022/12/08 07:51:06;;;;;;;10.02;3.90;;;1.90;99.90;;;;;;5097333;27;20076;-82
2022/12/08 07:53:32;;;;;;;9.85;4.50;;;1.90;99.90;;;;;;5097253;27;20059;-83
2022/12/08 07:55:58;;;;;;;21.48;8.13;;;1.90;99.90;;;;;;5076668;28;20050;-83
2022/12/08 07:58:24;;;;;;;13.63;4.30;;;1.80;99.90;;;;;;5089649;27;20108;-83
2022/12/08 08:00:51;;;;;;;15.65;7.45;;;1.70;99.90;;;;;;5093692;28;20066;-83
2022/12/08 08:03:17;;;;;;;9.45;4.57;;;1.70;99.90;;;;;;5063719;27;20503;-83
2022/12/08 08:05:43;;;;;;;13.93;7.65;;;1.60;99.90;;;;;;5114142;27;20080;-85
2022/12/08 08:08:09;;;;;;;16.17;7.00;;;1.50;99.90;;;;;;5076468;27;20054;-83
2022/12/08 08:10:35;;;;;;;14.93;6.20;;;1.40;99.90;;;;;;5094768;27;20396;-83
2022/12/08 08:13:01;;;;;;;13.90;7.57;;;1.40;99.90;;;;;;5084442;27;20043;-85
2022/12/08 08:15:27;;;;;;;15.90;6.78;;;1.40;99.90;;;;;;5095382;27;20109;-82
2022/12/08 08:17:53;;;;;;;17.40;9.48;;;1.30;99.90;;;;;;5068343;28;20821;-84
2022/12/08 08:20:19;;;;;;;9.77;4.90;;;1.30;99.90;;;;;;5097229;27;20126;-83
2022/12/08 08:22:50;;;;;;;11.57;4.32;;;1.20;99.90;;;;;;5096964;27;20039;-86
2022/12/08 08:25:16;;;;;;;15.35;6.72;;;1.20;99.90;;;;;;5097073;27;20050;-83
2022/12/08 08:27:43;;;;;;;8.68;4.82;;;1.20;99.90;;;;;;5113512;27;20043;-83
2022/12/08 08:30:11;;;;;;;13.07;6.57;;;1.10;99.90;;;;;;5113758;27;20118;-83
2022/12/08 08:32:37;;;;;;;12.63;4.57;;;1.10;99.90;;;;;;5096478;27;20059;-83
2022/12/08 08:35:04;;;;;;;15.10;6.65;;;1.00;99.90;;;;;;5113599;27;20039;-82
2022/12/08 08:37:30;;;;;;;9.60;4.85;;;1.10;99.90;;;;;;5096300;27;20050;-82
2022/12/08 08:39:56;;;;;;;34.35;18.88;;;1.10;99.90;;;;;;5096419;27;20050;-82
2022/12/08 08:42:22;;;;;;;26.70;18.33;;;1.20;99.90;;;;;;5078046;27;20043;-82
2022/12/08 08:44:47;;;;;;;39.47;31.95;;;1.10;99.90;;;;;;5092489;28;20480;-86
2022/12/08 08:47:14;;;;;;;15.90;10.88;;;1.20;99.90;;;;;;5095278;27;20059;-83
2022/12/08 08:49:39;;;;;;;14.85;7.47;;;1.10;99.90;;;;;;5088190;28;20040;-82
2022/12/08 08:52:05;;;;;;;10.82;4.72;;;1.10;99.90;;;;;;5078705;27;20100;-83
2022/12/08 08:54:31;;;;;;;10.95;4.78;;;1.20;99.90;;;;;;5112493;27;20046;-82
2022/12/08 08:56:58;;;;;;;13.13;5.72;;;1.20;99.90;;;;;;5112340;27;20043;-83
2022/12/08 08:59:24;;;;;;;10.27;5.43;;;1.20;99.90;;;;;;5096186;27;20531;-83
2022/12/08 09:01:50;;;;;;;14.75;4.97;;;1.10;99.90;;;;;;5094853;27;20048;-85
2022/12/08 09:04:16;;;;;;;11.90;5.85;;;1.20;99.90;;;;;;5113342;27;20373;-82
2022/12/08 09:06:43;;;;;;;15.10;5.30;;;1.30;99.90;;;;;;5094741;27;20540;-82
2022/12/08 09:09:09;;;;;;;16.38;5.82;;;1.40;99.90;;;;;;5075172;28;20174;-84
2022/12/08 09:11:35;;;;;;;11.75;6.82;;;1.50;99.90;;;;;;5074744;27;20043;-84
2022/12/08 09:14:01;;;;;;;19.17;7.90;;;1.50;99.90;;;;;;5094724;27;20042;-82
2022/12/08 09:16:26;;;;;;;12.50;5.57;;;1.50;99.90;;;;;;5079059;27;20134;-83
2022/12/08 09:18:52;;;;;;;18.27;7.00;;;1.40;99.90;;;;;;5096136;27;20046;-86
2022/12/08 09:21:22;;;;;;;12.20;7.28;;;1.40;99.90;;;;;;5068501;27;20093;-83
2022/12/08 09:23:48;;;;;;;14.75;6.95;;;1.30;99.90;;;;;;5096236;27;20526;-83
2022/12/08 09:26:17;;;;;;;12.15;7.47;;;1.30;99.90;;;;;;5092997;27;20039;-86
2022/12/08 09:28:45;;;;;;;13.95;6.80;;;1.20;99.90;;;;;;5092391;28;20088;-83
2022/12/08 09:31:14;;;;;;;10.30;5.13;;;1.20;99.90;;;;;;5077403;27;21087;-83
2022/12/08 09:33:40;;;;;;;16.35;5.60;;;1.20;99.90;;;;;;5078826;27;20373;-82
2022/12/08 09:36:06;;;;;;;18.63;6.40;;;1.10;99.90;;;;;;5093395;28;20036;-82
2022/12/08 09:38:31;;;;;;;18.30;7.38;;;1.10;99.90;;;;;;5085857;28;20042;-82
2022/12/08 09:40:59;;;;;;;14.38;6.63;;;1.10;99.90;;;;;;5077676;28;20797;-84
2022/12/08 09:43:59;;;;;;;13.68;5.10;;;1.10;99.90;;;;;;5092104;28;20044;-81
2022/12/08 09:46:29;;;;;;;9.32;4.60;;;1.10;99.90;;;;;;5092662;28;20404;-82
2022/12/08 09:48:58;;;;;;;14.52;6.03;;;1.10;99.90;;;;;;5092050;28;20050;-83
2022/12/08 09:51:26;;;;;;;11.65;5.20;;;1.10;99.90;;;;;;5108949;28;20122;-84
2022/12/08 09:53:59;;;;;;;9.25;4.70;;;1.20;99.90;;;;;;5109198;28;20042;-82
2022/12/08 09:56:35;;;;;;;12.93;4.35;;;1.20;99.90;;;;;;5109120;28;20092;-82
2022/12/08 09:59:23;;;;;;;13.30;4.22;;;1.20;99.90;;;;;;5108303;28;20047;-82
2022/12/08 10:01:49;;;;;;;11.57;3.90;;;1.30;99.90;;;;;;5108731;28;20050;-82
2022/12/08 10:04:36;;;;;;;13.90;3.88;;;1.50;99.90;;;;;;5074914;28;20044;-82
2022/12/08 10:07:29;;;;;;;13.45;3.83;;;1.60;99.90;;;;;;5074253;28;20043;-82
2022/12/08 10:10:32;;;;;;;9.68;3.70;;;1.60;99.90;;;;;;5108336;28;20132;-84
2022/12/08 10:13:04;;;;;;;9.43;3.20;;;1.70;99.90;;;;;;5085821;28;20055;-81
2022/12/08 10:16:00;;;;;;;6.97;3.25;;;1.80;99.90;;;;;;5107877;28;20069;-82
2022/12/08 10:18:29;;;;;;;7.75;3.30;;;1.90;99.90;;;;;;5106162;28;20122;-82
2022/12/08 10:21:08;;;;;;;12.15;3.95;;;1.90;99.90;;;;;;5085945;28;20130;-82
2022/12/08 10:23:36;;;;;;;9.13;3.55;;;2.00;99.90;;;;;;5096948;28;20079;-83
2022/12/08 10:26:10;;;;;;;8.25;3.33;;;2.00;99.90;;;;;;5094013;28;20070;-85
2022/12/08 10:28:38;;;;;;;8.65;2.83;;;2.10;99.90;;;;;;5094416;28;20071;-82
2022/12/08 10:31:04;;;;;;;11.52;2.95;;;2.20;99.90;;;;;;5077697;28;20054;-86
2022/12/08 10:33:31;;;;;;;8.13;2.50;;;2.20;99.90;;;;;;5112456;28;20389;-81
2022/12/08 10:36:01;;;;;;;9.57;3.83;;;2.40;99.90;;;;;;5078038;28;20047;-82
2022/12/08 10:38:31;;;;;;;10.85;4.32;;;2.50;99.90;;;;;;5094372;28;20544;-81
2022/12/08 10:41:09;;;;;;;7.18;3.60;;;2.70;99.90;;;;;;5077931;28;20040;-81
2022/12/08 10:43:45;;;;;;;7.10;3.08;;;2.70;99.90;;;;;;5086921;28;20060;-81
2022/12/08 10:46:14;;;;;;;6.30;2.67;;;2.70;99.90;;;;;;5098639;28;20061;-81
2022/12/08 10:48:47;;;;;;;5.20;2.38;;;2.70;99.90;;;;;;5111665;28;20477;-82
2022/12/08 10:51:23;;;;;;;10.25;2.85;;;2.70;99.90;;;;;;5094966;28;20146;-82
2022/12/08 10:53:49;;;;;;;6.97;2.70;;;2.70;99.90;;;;;;5094069;28;20511;-82
2022/12/08 10:56:15;;;;;;;5.43;2.13;;;2.60;99.90;;;;;;5094491;28;20051;-82
2022/12/08 10:58:43;;;;;;;12.23;5.60;;;2.60;99.90;;;;;;5076349;28;20100;-81
2022/12/08 11:01:09;;;;;;;6.93;3.58;;;2.70;99.90;;;;;;5110824;28;20507;-82
2022/12/08 11:03:57;;;;;;;9.27;3.75;;;2.70;99.90;;;;;;5094622;28;20040;-82
2022/12/08 11:06:29;;;;;;;8.63;3.42;;;2.70;99.90;;;;;;5110402;28;20051;-81
2022/12/08 11:09:06;;;;;;;8.23;3.17;;;2.70;99.90;;;;;;5099907;28;20415;-81
2022/12/08 11:11:47;;;;;;;7.80;3.33;;;2.70;99.90;;;;;;5110466;28;20126;-81
2022/12/08 11:14:25;;;;;;;8.32;4.13;;;2.70;99.90;;;;;;5086092;28;20052;-82
2022/12/08 11:17:08;;;;;;;10.68;3.80;;;2.70;99.90;;;;;;5098250;28;20046;-83
2022/12/08 11:19:53;;;;;;;8.07;3.15;;;2.70;99.90;;;;;;5090579;28;20951;-82
2022/12/08 11:22:36;;;;;;;11.20;3.88;;;2.70;99.90;;;;;;5110815;28;20051;-83
2022/12/08 11:25:09;;;;;;;4.47;2.67;;;2.80;99.90;;;;;;5091629;28;20054;-82
2022/12/08 11:27:40;;;;;;;9.80;2.65;;;2.80;99.90;;;;;;5109495;28;20058;-83
2022/12/08 11:30:14;;;;;;;5.82;2.92;;;2.80;99.90;;;;;;5077745;28;20158;-82
2022/12/08 11:32:43;;;;;;;5.55;2.97;;;2.80;99.90;;;;;;5093389;28;20051;-82
2022/12/08 11:35:25;;;;;;;8.75;2.75;;;2.90;99.90;;;;;;5093976;28;20507;-82
2022/12/08 11:37:54;;;;;;;6.95;2.80;;;3.00;99.90;;;;;;5093329;28;20401;-82
2022/12/08 11:40:25;;;;;;;9.52;2.92;;;3.00;99.90;;;;;;5081602;28;20101;-83
2022/12/08 11:42:59;;;;;;;9.95;4.10;;;3.10;99.90;;;;;;5111691;27;20084;-82
2022/12/08 11:45:30;;;;;;;7.32;4.15;;;3.10;99.90;;;;;;5113436;27;20046;-82
2022/12/08 11:48:37;;;;;;;9.25;3.88;;;3.30;99.90;;;;;;5097100;27;20054;-82
2022/12/08 11:51:29;;;;;;;6.87;3.50;;;3.40;99.90;;;;;;5109779;28;20059;-82
2022/12/08 11:54:05;;;;;;;10.50;3.88;;;3.70;99.90;;;;;;5111957;27;20051;-83
2022/12/08 11:56:39;;;;;;;8.23;3.58;;;3.90;99.90;;;;;;5113350;27;20050;-83
2022/12/08 11:59:27;;;;;;;10.48;3.35;;;3.80;99.90;;;;;;5096499;27;20046;-83
2022/12/08 12:01:53;;;;;;;10.82;3.53;;;3.60;99.90;;;;;;5113144;27;20053;-84
2022/12/08 12:05:13;;;;;;;17.33;6.53;;;3.40;99.90;;;;;;5086776;28;20051;-83
2022/12/08 12:07:42;;;;;;;7.05;3.72;;;3.20;99.90;;;;;;5042553;28;20052;-83
2022/12/08 12:10:08;;;;;;;15.63;5.63;;;3.10;99.90;;;;;;5033979;28;20052;-84
2022/12/08 12:13:07;;;;;;;11.63;3.53;;;3.00;99.90;;;;;;5072275;27;20059;-84
2022/12/08 12:16:15;;;;;;;13.75;6.30;;;2.90;99.90;;;;;;5111699;27;20806;-83
2022/12/08 12:18:58;;;;;;;10.65;5.65;;;2.80;99.90;;;;;;5083754;27;20400;-82
2022/12/08 12:21:30;;;;;;;14.02;7.60;;;2.80;99.90;;;;;;5112705;27;20046;-84
2022/12/08 12:24:01;;;;;;;28.05;13.43;;;2.70;99.90;;;;;;5113901;27;20047;-82
2022/12/08 12:27:05;;;;;;;48.47;29.05;;;2.70;99.90;;;;;;5112551;27;20046;-81
2022/12/08 12:29:37;;;;;;;19.80;10.85;;;2.70;99.90;;;;;;5112178;27;20047;-82
2022/12/08 12:32:06;;;;;;;18.80;8.70;;;2.70;99.90;;;;;;5096408;27;20051;-81
2022/12/08 12:34:36;;;;;;;14.32;7.38;;;2.60;99.90;;;;;;5095913;27;20045;-82
2022/12/08 12:37:16;;;;;;;16.75;9.63;;;2.60;99.90;;;;;;5113275;27;20046;-82
2022/12/08 12:40:22;;;;;;;15.88;8.43;;;2.60;99.90;;;;;;5112899;27;20086;-82
2022/12/08 12:42:55;;;;;;;10.68;5.50;;;2.90;99.90;;;;;;4991114;28;20570;-82
2022/12/08 12:45:29;;;;;;;13.27;7.72;;;3.10;99.90;;;;;;4975439;28;20135;-84
2022/12/08 12:47:55;;;;;;;10.55;5.38;;;3.40;99.90;;;;;;5019687;28;20059;-82
2022/12/08 12:50:32;;;;;;;10.55;5.25;;;3.80;99.90;;;;;;5072180;28;20044;-82
2022/12/08 12:53:19;;;;;;;9.15;4.72;;;4.00;99.90;;;;;;5071456;28;20071;-84
2022/12/08 12:55:45;;;;;;;;;;;4.20;99.90;;;;;;5072459;28;20054;-83
2022/12/08 12:58:19;;;;;;;7.97;2.20;;;4.40;99.90;;;;;;5072663;28;19920;-82
2022/12/08 13:00:45;;;;;;;5.75;2.00;;;4.50;99.90;;;;;;5088685;28;20040;-83
2022/12/08 13:03:16;;;;;;;8.30;2.13;;;4.40;99.90;;;;;;5068585;28;20071;-84
2022/12/08 13:05:51;;;;;;;3.63;1.00;;;4.40;99.90;;;;;;5089094;28;20043;-82
2022/12/08 13:08:23;;;;;;;6.20;1.17;;;4.40;99.90;;;;;;5072309;28;20167;-81
2022/12/08 13:11:08;;;;;;;4.50;1.17;;;4.40;99.90;;;;;;5071889;28;20735;-84
2022/12/08 13:13:34;;;;;;;6.00;1.27;;;4.30;99.90;;;;;;5089208;28;20052;-82
2022/12/08 13:16:16;;;;;;;3.03;1.00;;;4.40;99.90;;;;;;5068454;28;20048;-83
2022/12/08 13:18:48;;;;;;;5.85;0.70;;;4.40;99.90;;;;;;5078711;28;20040;-81